sensor_id;sensor_type;location;lat;lon;timestamp;noise_LAeq;noise_LA_min;noise_LA_max;noise_LA01;noise_LA95
58303;Laerm;44109;52.398;7.024;2024-02-23T00:02:07;69.71;51.57;98.73;;
58303;Laerm;44109;52.398;7.024;2024-02-23T00:04:35;67.20;47.41;97.12;;
58303;Laerm;44109;52.398;7.024;2024-02-23T00:07:02;64.08;45.11;93.34;;
58303;Laerm;44109;52.398;7.024;2024-02-23T00:09:30;64.57;45.01;95.04;;
58303;Laerm;44109;52.398;7.024;2024-02-23T00:12:00;59.28;43.62;83.45;;
58303;Laerm;44109;52.398;7.024;2024-02-23T00:14:29;61.10;46.07;90.78;;
58303;Laerm;44109;52.398;7.024;2024-02-23T00:16:57;63.78;43.90;97.44;;
58303;Laerm;44109;52.398;7.024;2024-02-23T00:19:30;62.25;40.55;96.26;;
58303;Laerm;44109;52.398;7.024;2024-02-23T00:21:58;67.04;42.62;99.71;;
58303;Laerm;44109;52.398;7.024;2024-02-23T00:24:26;61.82;45.00;93.08;;
58303;Laerm;44109;52.398;7.024;2024-02-23T00:26:54;59.00;43.74;90.89;;
58303;Laerm;44109;52.398;7.024;2024-02-23T00:29:21;63.35;44.62;95.89;;
58303;Laerm;44109;52.398;7.024;2024-02-23T00:31:49;61.82;44.93;92.87;;
58303;Laerm;44109;52.398;7.024;2024-02-23T00:34:17;56.68;43.07;84.86;;
58303;Laerm;44109;52.398;7.024;2024-02-23T00:36:46;68.77;43.05;101.81;;
58303;Laerm;44109;52.398;7.024;2024-02-23T00:39:14;55.98;39.57;86.21;;
58303;Laerm;44109;52.398;7.024;2024-02-23T00:41:42;64.50;39.03;98.91;;
58303;Laerm;44109;52.398;7.024;2024-02-23T00:44:09;61.97;42.39;91.16;;
58303;Laerm;44109;52.398;7.024;2024-02-23T00:46:37;62.01;40.82;97.45;;
58303;Laerm;44109;52.398;7.024;2024-02-23T00:49:05;56.76;41.85;85.44;;
58303;Laerm;44109;52.398;7.024;2024-02-23T00:51:33;66.86;45.52;102.26;;
58303;Laerm;44109;52.398;7.024;2024-02-23T00:54:02;63.13;42.88;95.85;;
58303;Laerm;44109;52.398;7.024;2024-02-23T00:56:32;54.68;41.12;88.30;;
58303;Laerm;44109;52.398;7.024;2024-02-23T00:59:00;60.93;45.78;94.82;;
58303;Laerm;44109;52.398;7.024;2024-02-23T01:01:27;54.10;40.09;86.58;;
58303;Laerm;44109;52.398;7.024;2024-02-23T01:03:55;57.10;39.72;79.60;;
58303;Laerm;44109;52.398;7.024;2024-02-23T01:06:23;57.94;48.66;75.77;;
58303;Laerm;44109;52.398;7.024;2024-02-23T01:08:51;52.56;41.23;69.22;;
58303;Laerm;44109;52.398;7.024;2024-02-23T01:11:20;52.07;40.51;74.14;;
58303;Laerm;44109;52.398;7.024;2024-02-23T01:13:48;51.60;40.65;68.13;;
58303;Laerm;44109;52.398;7.024;2024-02-23T01:16:15;47.27;39.49;58.53;;
58303;Laerm;44109;52.398;7.024;2024-02-23T01:18:43;48.08;36.73;66.59;;
58303;Laerm;44109;52.398;7.024;2024-02-23T01:21:11;47.65;36.80;63.84;;
58303;Laerm;44109;52.398;7.024;2024-02-23T01:23:38;47.83;38.61;63.24;;
58303;Laerm;44109;52.398;7.024;2024-02-23T01:26:06;47.44;37.89;65.73;;
58303;Laerm;44109;52.398;7.024;2024-02-23T01:28:35;47.30;37.40;59.25;;
58303;Laerm;44109;52.398;7.024;2024-02-23T01:31:03;46.31;35.39;60.42;;
58303;Laerm;44109;52.398;7.024;2024-02-23T01:33:34;47.08;36.43;57.32;;
58303;Laerm;44109;52.398;7.024;2024-02-23T01:36:03;46.97;37.54;65.58;;
58303;Laerm;44109;52.398;7.024;2024-02-23T01:38:31;46.29;35.34;60.87;;
58303;Laerm;44109;52.398;7.024;2024-02-23T01:41:01;48.44;37.06;65.27;;
58303;Laerm;44109;52.398;7.024;2024-02-23T01:43:28;45.34;35.62;57.24;;
58303;Laerm;44109;52.398;7.024;2024-02-23T01:45:57;45.66;36.07;59.12;;
58303;Laerm;44109;52.398;7.024;2024-02-23T01:48:26;48.95;36.68;66.17;;
58303;Laerm;44109;52.398;7.024;2024-02-23T01:50:54;48.33;38.05;59.70;;
58303;Laerm;44109;52.398;7.024;2024-02-23T01:53:23;47.71;37.30;62.38;;
58303;Laerm;44109;52.398;7.024;2024-02-23T01:55:53;50.92;38.81;60.30;;
58303;Laerm;44109;52.398;7.024;2024-02-23T01:58:22;48.63;38.22;59.67;;
58303;Laerm;44109;52.398;7.024;2024-02-23T02:00:49;49.00;42.29;60.21;;
58303;Laerm;44109;52.398;7.024;2024-02-23T02:03:18;50.40;37.95;58.54;;
58303;Laerm;44109;52.398;7.024;2024-02-23T02:05:46;50.71;35.96;67.54;;
58303;Laerm;44109;52.398;7.024;2024-02-23T02:08:16;51.00;38.77;62.15;;
58303;Laerm;44109;52.398;7.024;2024-02-23T02:10:44;48.39;38.37;63.28;;
58303;Laerm;44109;52.398;7.024;2024-02-23T02:13:12;49.67;39.71;63.79;;
58303;Laerm;44109;52.398;7.024;2024-02-23T02:15:40;62.58;46.32;89.07;;
58303;Laerm;44109;52.398;7.024;2024-02-23T02:18:09;65.77;45.29;92.87;;
58303;Laerm;44109;52.398;7.024;2024-02-23T02:20:50;63.56;49.37;89.92;;
58303;Laerm;44109;52.398;7.024;2024-02-23T02:23:19;59.65;42.77;94.80;;
58303;Laerm;44109;52.398;7.024;2024-02-23T02:25:52;53.72;43.67;65.33;;
58303;Laerm;44109;52.398;7.024;2024-02-23T02:28:21;52.16;40.43;69.65;;
58303;Laerm;44109;52.398;7.024;2024-02-23T02:30:49;49.12;39.63;69.07;;
58303;Laerm;44109;52.398;7.024;2024-02-23T02:33:16;53.12;40.04;71.14;;
58303;Laerm;44109;52.398;7.024;2024-02-23T02:35:45;56.85;42.81;86.55;;
58303;Laerm;44109;52.398;7.024;2024-02-23T02:38:13;58.50;40.95;88.99;;
58303;Laerm;44109;52.398;7.024;2024-02-23T02:40:41;76.42;50.80;101.16;;
58303;Laerm;44109;52.398;7.024;2024-02-23T02:43:09;68.05;47.64;98.44;;
58303;Laerm;44109;52.398;7.024;2024-02-23T02:45:37;68.30;45.24;98.22;;
58303;Laerm;44109;52.398;7.024;2024-02-23T02:48:06;69.15;45.90;99.62;;
58303;Laerm;44109;52.398;7.024;2024-02-23T02:50:34;71.28;51.14;99.05;;
58303;Laerm;44109;52.398;7.024;2024-02-23T02:53:03;70.68;45.53;101.55;;
58303;Laerm;44109;52.398;7.024;2024-02-23T02:55:31;68.37;46.63;100.88;;
58303;Laerm;44109;52.398;7.024;2024-02-23T02:57:59;68.88;42.28;101.46;;
58303;Laerm;44109;52.398;7.024;2024-02-23T03:00:26;58.95;38.48;92.48;;
58303;Laerm;44109;52.398;7.024;2024-02-23T03:02:54;71.18;41.62;100.48;;
58303;Laerm;44109;52.398;7.024;2024-02-23T03:05:21;59.31;39.91;94.49;;
58303;Laerm;44109;52.398;7.024;2024-02-23T03:07:49;54.64;36.74;87.63;;
58303;Laerm;44109;52.398;7.024;2024-02-23T03:10:18;44.32;33.49;65.99;;
58303;Laerm;44109;52.398;7.024;2024-02-23T03:12:47;43.74;32.83;60.31;;
58303;Laerm;44109;52.398;7.024;2024-02-23T03:15:14;43.70;32.48;58.02;;
58303;Laerm;44109;52.398;7.024;2024-02-23T03:17:42;44.62;31.90;57.73;;
58303;Laerm;44109;52.398;7.024;2024-02-23T03:20:11;43.42;31.98;57.44;;
58303;Laerm;44109;52.398;7.024;2024-02-23T03:22:39;43.81;32.33;63.70;;
58303;Laerm;44109;52.398;7.024;2024-02-23T03:25:07;44.11;32.37;62.56;;
58303;Laerm;44109;52.398;7.024;2024-02-23T03:27:37;43.65;32.38;57.51;;
58303;Laerm;44109;52.398;7.024;2024-02-23T03:30:06;43.74;32.54;57.97;;
58303;Laerm;44109;52.398;7.024;2024-02-23T03:32:37;43.65;32.29;58.22;;
58303;Laerm;44109;52.398;7.024;2024-02-23T03:35:06;44.08;33.13;57.80;;
58303;Laerm;44109;52.398;7.024;2024-02-23T03:37:34;44.22;33.10;62.52;;
58303;Laerm;44109;52.398;7.024;2024-02-23T03:40:03;46.38;35.12;59.16;;
58303;Laerm;44109;52.398;7.024;2024-02-23T03:42:31;46.42;38.75;58.17;;
58303;Laerm;44109;52.398;7.024;2024-02-23T03:45:00;48.17;40.90;58.09;;
58303;Laerm;44109;52.398;7.024;2024-02-23T03:47:27;51.33;42.74;67.13;;
58303;Laerm;44109;52.398;7.024;2024-02-23T03:49:55;49.81;40.88;64.51;;
58303;Laerm;44109;52.398;7.024;2024-02-23T03:52:23;46.80;38.86;58.07;;
58303;Laerm;44109;52.398;7.024;2024-02-23T03:54:51;47.23;39.46;59.90;;
58303;Laerm;44109;52.398;7.024;2024-02-23T03:57:20;48.31;39.49;60.70;;
58303;Laerm;44109;52.398;7.024;2024-02-23T03:59:55;46.95;39.89;57.60;;
58303;Laerm;44109;52.398;7.024;2024-02-23T04:02:24;46.37;38.23;57.71;;
58303;Laerm;44109;52.398;7.024;2024-02-23T04:04:51;46.58;38.81;57.67;;
58303;Laerm;44109;52.398;7.024;2024-02-23T04:07:20;49.35;41.61;59.38;;
58303;Laerm;44109;52.398;7.024;2024-02-23T04:09:48;48.36;41.27;57.55;;
58303;Laerm;44109;52.398;7.024;2024-02-23T04:12:18;47.64;40.15;58.02;;
58303;Laerm;44109;52.398;7.024;2024-02-23T04:14:46;47.57;39.72;57.68;;
58303;Laerm;44109;52.398;7.024;2024-02-23T04:17:14;50.36;40.31;62.35;;
58303;Laerm;44109;52.398;7.024;2024-02-23T04:19:43;48.24;42.71;58.55;;
58303;Laerm;44109;52.398;7.024;2024-02-23T04:22:12;50.95;39.08;67.37;;
58303;Laerm;44109;52.398;7.024;2024-02-23T04:24:41;50.06;42.79;61.43;;
58303;Laerm;44109;52.398;7.024;2024-02-23T04:27:08;48.59;42.90;57.76;;
58303;Laerm;44109;52.398;7.024;2024-02-23T04:29:36;52.13;42.20;60.02;;
58303;Laerm;44109;52.398;7.024;2024-02-23T04:32:05;52.36;44.18;72.94;;
58303;Laerm;44109;52.398;7.024;2024-02-23T04:34:34;49.01;41.55;57.70;;
58303;Laerm;44109;52.398;7.024;2024-02-23T04:37:04;48.68;39.47;57.71;;
58303;Laerm;44109;52.398;7.024;2024-02-23T04:39:31;49.39;37.35;65.23;;
58303;Laerm;44109;52.398;7.024;2024-02-23T04:41:59;49.62;40.53;60.15;;
58303;Laerm;44109;52.398;7.024;2024-02-23T04:44:26;50.41;38.35;61.85;;
58303;Laerm;44109;52.398;7.024;2024-02-23T04:46:54;50.08;40.77;65.11;;
58303;Laerm;44109;52.398;7.024;2024-02-23T04:49:22;49.30;39.72;61.40;;
58303;Laerm;44109;52.398;7.024;2024-02-23T04:51:49;49.95;41.07;61.35;;
58303;Laerm;44109;52.398;7.024;2024-02-23T04:54:18;49.02;38.85;72.73;;
58303;Laerm;44109;52.398;7.024;2024-02-23T04:56:46;46.14;35.87;57.66;;
58303;Laerm;44109;52.398;7.024;2024-02-23T04:59:14;46.65;38.57;57.45;;
58303;Laerm;44109;52.398;7.024;2024-02-23T05:01:42;46.88;36.95;59.32;;
58303;Laerm;44109;52.398;7.024;2024-02-23T05:04:10;48.24;36.41;57.80;;
58303;Laerm;44109;52.398;7.024;2024-02-23T05:06:37;46.49;38.78;57.73;;
58303;Laerm;44109;52.398;7.024;2024-02-23T05:09:05;48.89;39.39;63.59;;
58303;Laerm;44109;52.398;7.024;2024-02-23T05:11:37;47.92;38.06;58.10;;
58303;Laerm;44109;52.398;7.024;2024-02-23T05:14:05;48.26;38.73;58.51;;
58303;Laerm;44109;52.398;7.024;2024-02-23T05:16:33;48.32;39.75;58.58;;
58303;Laerm;44109;52.398;7.024;2024-02-23T05:19:00;51.56;41.02;62.53;;
58303;Laerm;44109;52.398;7.024;2024-02-23T05:21:29;48.60;39.48;60.34;;
58303;Laerm;44109;52.398;7.024;2024-02-23T05:23:57;48.44;39.28;57.61;;
58303;Laerm;44109;52.398;7.024;2024-02-23T05:26:25;49.56;42.12;63.73;;
58303;Laerm;44109;52.398;7.024;2024-02-23T05:28:54;52.20;42.37;68.78;;
58303;Laerm;44109;52.398;7.024;2024-02-23T05:31:48;49.26;41.29;60.96;;
58303;Laerm;44109;52.398;7.024;2024-02-23T05:34:16;49.43;39.72;64.77;;
58303;Laerm;44109;52.398;7.024;2024-02-23T05:36:43;49.00;41.25;60.02;;
58303;Laerm;44109;52.398;7.024;2024-02-23T05:39:12;51.03;40.36;63.93;;
58303;Laerm;44109;52.398;7.024;2024-02-23T05:41:41;51.47;40.71;67.88;;
58303;Laerm;44109;52.398;7.024;2024-02-23T05:44:10;47.97;37.65;57.73;;
58303;Laerm;44109;52.398;7.024;2024-02-23T05:46:39;50.49;43.70;64.85;;
58303;Laerm;44109;52.398;7.024;2024-02-23T05:49:07;49.77;40.20;60.40;;
58303;Laerm;44109;52.398;7.024;2024-02-23T05:51:35;49.63;40.58;57.96;;
58303;Laerm;44109;52.398;7.024;2024-02-23T05:54:03;49.71;39.85;59.50;;
58303;Laerm;44109;52.398;7.024;2024-02-23T05:56:31;52.91;42.63;64.00;;
58303;Laerm;44109;52.398;7.024;2024-02-23T05:58:58;53.60;43.21;66.25;;
58303;Laerm;44109;52.398;7.024;2024-02-23T06:01:27;52.97;40.41;67.31;;
58303;Laerm;44109;52.398;7.024;2024-02-23T06:03:55;54.28;42.69;68.41;;
58303;Laerm;44109;52.398;7.024;2024-02-23T06:06:22;54.28;39.28;68.84;;
58303;Laerm;44109;52.398;7.024;2024-02-23T06:08:50;54.71;40.36;71.40;;
58303;Laerm;44109;52.398;7.024;2024-02-23T06:11:17;54.36;42.99;69.56;;
58303;Laerm;44109;52.398;7.024;2024-02-23T06:13:45;53.65;40.38;70.01;;
58303;Laerm;44109;52.398;7.024;2024-02-23T06:16:12;52.17;39.78;69.20;;
58303;Laerm;44109;52.398;7.024;2024-02-23T06:18:41;51.03;41.10;70.27;;
58303;Laerm;44109;52.398;7.024;2024-02-23T06:21:13;51.62;43.55;63.94;;
58303;Laerm;44109;52.398;7.024;2024-02-23T06:23:41;51.16;42.16;70.39;;
58303;Laerm;44109;52.398;7.024;2024-02-23T06:26:09;49.46;41.08;66.92;;
58303;Laerm;44109;52.398;7.024;2024-02-23T06:28:38;53.28;43.21;70.68;;
58303;Laerm;44109;52.398;7.024;2024-02-23T06:31:08;50.72;43.28;69.59;;
58303;Laerm;44109;52.398;7.024;2024-02-23T06:33:36;52.61;44.16;68.21;;
58303;Laerm;44109;52.398;7.024;2024-02-23T06:36:05;50.78;42.48;65.48;;
58303;Laerm;44109;52.398;7.024;2024-02-23T06:38:34;57.76;42.20;75.99;;
58303;Laerm;44109;52.398;7.024;2024-02-23T06:41:02;55.81;45.56;74.25;;
58303;Laerm;44109;52.398;7.024;2024-02-23T06:43:29;52.18;42.83;63.70;;
58303;Laerm;44109;52.398;7.024;2024-02-23T06:45:56;49.92;39.89;64.08;;
58303;Laerm;44109;52.398;7.024;2024-02-23T06:48:24;51.67;41.89;68.39;;
58303;Laerm;44109;52.398;7.024;2024-02-23T06:50:53;51.36;40.70;70.23;;
58303;Laerm;44109;52.398;7.024;2024-02-23T06:53:22;51.26;42.78;67.32;;
58303;Laerm;44109;52.398;7.024;2024-02-23T06:55:49;52.43;44.18;67.20;;
58303;Laerm;44109;52.398;7.024;2024-02-23T06:58:17;50.27;37.73;68.94;;
58303;Laerm;44109;52.398;7.024;2024-02-23T07:00:44;51.68;40.92;67.57;;
58303;Laerm;44109;52.398;7.024;2024-02-23T07:03:12;51.57;41.04;65.66;;
58303;Laerm;44109;52.398;7.024;2024-02-23T07:05:40;48.21;39.85;61.98;;
58303;Laerm;44109;52.398;7.024;2024-02-23T07:08:08;51.98;43.62;66.26;;
58303;Laerm;44109;52.398;7.024;2024-02-23T07:10:37;52.12;42.86;64.77;;
58303;Laerm;44109;52.398;7.024;2024-02-23T07:13:06;50.77;41.97;62.08;;
58303;Laerm;44109;52.398;7.024;2024-02-23T07:15:34;51.19;42.41;66.16;;
58303;Laerm;44109;52.398;7.024;2024-02-23T07:18:03;51.35;43.82;66.55;;
58303;Laerm;44109;52.398;7.024;2024-02-23T07:20:30;51.40;44.25;68.22;;
58303;Laerm;44109;52.398;7.024;2024-02-23T07:22:58;51.90;42.80;70.49;;
58303;Laerm;44109;52.398;7.024;2024-02-23T07:25:26;52.06;43.24;65.90;;
58303;Laerm;44109;52.398;7.024;2024-02-23T07:27:55;51.03;39.46;68.07;;
58303;Laerm;44109;52.398;7.024;2024-02-23T07:30:24;50.12;41.67;69.40;;
58303;Laerm;44109;52.398;7.024;2024-02-23T07:32:51;50.82;43.26;59.80;;
58303;Laerm;44109;52.398;7.024;2024-02-23T07:35:19;49.87;40.20;62.64;;
58303;Laerm;44109;52.398;7.024;2024-02-23T07:37:47;56.10;43.95;71.76;;
58303;Laerm;44109;52.398;7.024;2024-02-23T07:40:15;52.82;39.49;70.34;;
58303;Laerm;44109;52.398;7.024;2024-02-23T07:42:43;51.60;40.80;67.28;;
58303;Laerm;44109;52.398;7.024;2024-02-23T07:45:12;50.55;42.73;65.81;;
58303;Laerm;44109;52.398;7.024;2024-02-23T07:47:42;53.58;44.55;69.89;;
58303;Laerm;44109;52.398;7.024;2024-02-23T07:50:10;50.20;40.43;70.22;;
58303;Laerm;44109;52.398;7.024;2024-02-23T07:52:39;52.79;42.24;70.49;;
58303;Laerm;44109;52.398;7.024;2024-02-23T07:55:08;56.62;41.41;74.66;;
58303;Laerm;44109;52.398;7.024;2024-02-23T07:57:36;51.01;41.20;71.39;;
58303;Laerm;44109;52.398;7.024;2024-02-23T08:00:07;52.64;41.85;69.65;;
58303;Laerm;44109;52.398;7.024;2024-02-23T08:02:37;53.37;43.71;69.59;;
58303;Laerm;44109;52.398;7.024;2024-02-23T08:05:06;49.16;41.52;64.55;;
58303;Laerm;44109;52.398;7.024;2024-02-23T08:07:33;51.73;44.34;70.58;;
58303;Laerm;44109;52.398;7.024;2024-02-23T08:10:02;50.37;41.07;67.62;;
58303;Laerm;44109;52.398;7.024;2024-02-23T08:12:31;53.05;45.48;68.64;;
58303;Laerm;44109;52.398;7.024;2024-02-23T08:14:58;54.46;43.92;74.45;;
58303;Laerm;44109;52.398;7.024;2024-02-23T08:17:26;54.96;41.48;74.80;;
58303;Laerm;44109;52.398;7.024;2024-02-23T08:19:55;53.64;40.38;77.49;;
58303;Laerm;44109;52.398;7.024;2024-02-23T08:22:22;50.19;42.63;64.18;;
58303;Laerm;44109;52.398;7.024;2024-02-23T08:24:50;51.46;42.87;66.28;;
58303;Laerm;44109;52.398;7.024;2024-02-23T08:27:18;51.42;41.32;70.33;;
58303;Laerm;44109;52.398;7.024;2024-02-23T08:29:46;50.17;40.67;60.57;;
58303;Laerm;44109;52.398;7.024;2024-02-23T08:32:13;51.93;45.51;63.61;;
58303;Laerm;44109;52.398;7.024;2024-02-23T08:34:41;51.60;43.34;66.51;;
58303;Laerm;44109;52.398;7.024;2024-02-23T08:37:10;50.34;42.82;64.03;;
58303;Laerm;44109;52.398;7.024;2024-02-23T08:39:38;54.42;44.85;67.17;;
58303;Laerm;44109;52.398;7.024;2024-02-23T08:42:07;53.41;41.82;69.64;;
58303;Laerm;44109;52.398;7.024;2024-02-23T08:44:35;54.80;44.22;72.49;;
58303;Laerm;44109;52.398;7.024;2024-02-23T08:47:05;50.09;41.20;68.17;;
58303;Laerm;44109;52.398;7.024;2024-02-23T08:49:33;50.70;43.45;69.43;;
58303;Laerm;44109;52.398;7.024;2024-02-23T08:52:00;49.91;42.62;57.66;;
58303;Laerm;44109;52.398;7.024;2024-02-23T08:54:30;51.60;40.50;69.55;;
58303;Laerm;44109;52.398;7.024;2024-02-23T08:56:58;51.79;44.99;67.14;;
58303;Laerm;44109;52.398;7.024;2024-02-23T08:59:25;52.67;42.90;70.23;;
58303;Laerm;44109;52.398;7.024;2024-02-23T09:01:53;52.34;43.19;62.95;;
58303;Laerm;44109;52.398;7.024;2024-02-23T09:04:20;51.10;44.58;62.84;;
58303;Laerm;44109;52.398;7.024;2024-02-23T09:06:48;50.19;41.47;66.59;;
58303;Laerm;44109;52.398;7.024;2024-02-23T09:09:16;50.94;42.27;69.75;;
58303;Laerm;44109;52.398;7.024;2024-02-23T09:11:45;51.38;41.87;65.44;;
58303;Laerm;44109;52.398;7.024;2024-02-23T09:14:13;52.95;44.69;70.72;;
58303;Laerm;44109;52.398;7.024;2024-02-23T09:16:41;52.71;47.00;66.05;;
58303;Laerm;44109;52.398;7.024;2024-02-23T09:19:08;52.14;45.12;67.08;;
58303;Laerm;44109;52.398;7.024;2024-02-23T09:21:36;53.10;44.01;78.85;;
58303;Laerm;44109;52.398;7.024;2024-02-23T09:24:06;52.47;43.67;70.63;;
58303;Laerm;44109;52.398;7.024;2024-02-23T09:26:33;52.35;41.97;64.08;;
58303;Laerm;44109;52.398;7.024;2024-02-23T09:29:03;54.31;43.46;69.52;;
58303;Laerm;44109;52.398;7.024;2024-02-23T09:31:30;53.22;45.71;72.27;;
58303;Laerm;44109;52.398;7.024;2024-02-23T09:33:58;51.53;43.59;61.72;;
58303;Laerm;44109;52.398;7.024;2024-02-23T09:36:26;52.00;41.98;66.68;;
58303;Laerm;44109;52.398;7.024;2024-02-23T09:38:54;56.15;45.62;65.94;;
58303;Laerm;44109;52.398;7.024;2024-02-23T09:41:23;52.46;45.23;60.17;;
58303;Laerm;44109;52.398;7.024;2024-02-23T09:43:52;54.75;44.89;75.12;;
58303;Laerm;44109;52.398;7.024;2024-02-23T09:46:21;56.29;46.75;72.18;;
58303;Laerm;44109;52.398;7.024;2024-02-23T09:48:49;53.91;46.66;67.63;;
58303;Laerm;44109;52.398;7.024;2024-02-23T09:51:17;53.59;45.56;71.22;;
58303;Laerm;44109;52.398;7.024;2024-02-23T09:53:49;53.85;45.74;69.17;;
58303;Laerm;44109;52.398;7.024;2024-02-23T09:56:17;54.65;44.91;71.69;;
58303;Laerm;44109;52.398;7.024;2024-02-23T09:58:47;53.83;44.87;73.89;;
58303;Laerm;44109;52.398;7.024;2024-02-23T10:01:27;52.56;43.33;63.39;;
58303;Laerm;44109;52.398;7.024;2024-02-23T10:03:57;54.52;46.82;69.76;;
58303;Laerm;44109;52.398;7.024;2024-02-23T10:06:25;53.20;44.36;70.52;;
58303;Laerm;44109;52.398;7.024;2024-02-23T10:08:53;51.34;43.62;67.11;;
58303;Laerm;44109;52.398;7.024;2024-02-23T10:11:21;53.18;45.35;69.00;;
58303;Laerm;44109;52.398;7.024;2024-02-23T10:13:50;55.18;44.23;73.94;;
58303;Laerm;44109;52.398;7.024;2024-02-23T10:16:18;54.40;44.26;68.30;;
58303;Laerm;44109;52.398;7.024;2024-02-23T10:18:49;53.68;46.48;70.56;;
58303;Laerm;44109;52.398;7.024;2024-02-23T10:21:17;52.28;45.11;66.10;;
58303;Laerm;44109;52.398;7.024;2024-02-23T10:23:45;52.09;44.00;69.49;;
58303;Laerm;44109;52.398;7.024;2024-02-23T10:26:13;52.27;42.46;75.31;;
58303;Laerm;44109;52.398;7.024;2024-02-23T10:28:46;53.21;44.59;68.42;;
58303;Laerm;44109;52.398;7.024;2024-02-23T10:31:13;51.50;42.73;69.41;;
58303;Laerm;44109;52.398;7.024;2024-02-23T10:33:42;53.16;43.06;71.35;;
58303;Laerm;44109;52.398;7.024;2024-02-23T10:36:15;50.78;44.52;62.30;;
58303;Laerm;44109;52.398;7.024;2024-02-23T10:38:46;50.29;45.03;65.54;;
58303;Laerm;44109;52.398;7.024;2024-02-23T10:41:14;51.54;43.78;68.87;;
58303;Laerm;44109;52.398;7.024;2024-02-23T10:43:47;51.41;42.63;60.56;;
58303;Laerm;44109;52.398;7.024;2024-02-23T10:46:15;51.22;42.58;66.88;;
58303;Laerm;44109;52.398;7.024;2024-02-23T10:48:44;51.64;42.71;61.64;;
58303;Laerm;44109;52.398;7.024;2024-02-23T10:51:14;53.36;44.91;67.49;;
58303;Laerm;44109;52.398;7.024;2024-02-23T10:53:43;52.67;45.09;65.33;;
58303;Laerm;44109;52.398;7.024;2024-02-23T10:56:12;51.59;44.13;68.52;;
58303;Laerm;44109;52.398;7.024;2024-02-23T10:58:40;50.90;42.06;68.29;;
58303;Laerm;44109;52.398;7.024;2024-02-23T11:01:10;50.28;41.99;70.33;;
58303;Laerm;44109;52.398;7.024;2024-02-23T11:03:42;52.52;44.33;72.32;;
58303;Laerm;44109;52.398;7.024;2024-02-23T11:06:15;51.58;42.25;75.89;;
58303;Laerm;44109;52.398;7.024;2024-02-23T11:08:47;51.57;42.46;73.50;;
58303;Laerm;44109;52.398;7.024;2024-02-23T11:11:16;49.14;41.56;66.11;;
58303;Laerm;44109;52.398;7.024;2024-02-23T11:13:45;51.11;43.16;58.71;;
58303;Laerm;44109;52.398;7.024;2024-02-23T11:16:22;52.19;43.16;71.09;;
58303;Laerm;44109;52.398;7.024;2024-02-23T11:19:04;52.36;43.38;70.10;;
58303;Laerm;44109;52.398;7.024;2024-02-23T11:21:36;52.12;43.70;76.34;;
58303;Laerm;44109;52.398;7.024;2024-02-23T11:24:06;55.80;44.42;82.03;;
58303;Laerm;44109;52.398;7.024;2024-02-23T11:26:37;49.80;41.62;67.72;;
58303;Laerm;44109;52.398;7.024;2024-02-23T11:29:11;54.16;42.30;77.30;;
58303;Laerm;44109;52.398;7.024;2024-02-23T11:31:46;52.29;43.29;69.89;;
58303;Laerm;44109;52.398;7.024;2024-02-23T11:34:13;50.31;42.57;63.27;;
58303;Laerm;44109;52.398;7.024;2024-02-23T11:36:52;51.45;43.13;68.08;;
58303;Laerm;44109;52.398;7.024;2024-02-23T11:39:20;51.41;43.59;67.96;;
58303;Laerm;44109;52.398;7.024;2024-02-23T11:41:49;52.42;43.32;75.02;;
58303;Laerm;44109;52.398;7.024;2024-02-23T11:44:17;54.08;45.69;70.06;;
58303;Laerm;44109;52.398;7.024;2024-02-23T11:46:46;52.97;45.83;71.69;;
58303;Laerm;44109;52.398;7.024;2024-02-23T11:49:14;53.38;45.40;68.70;;
58303;Laerm;44109;52.398;7.024;2024-02-23T11:51:43;51.42;44.86;63.37;;
58303;Laerm;44109;52.398;7.024;2024-02-23T11:54:12;52.98;41.52;71.25;;
58303;Laerm;44109;52.398;7.024;2024-02-23T11:56:40;51.09;41.79;68.95;;
58303;Laerm;44109;52.398;7.024;2024-02-23T11:59:09;51.74;43.36;68.23;;
58303;Laerm;44109;52.398;7.024;2024-02-23T12:01:37;51.19;43.67;63.42;;
58303;Laerm;44109;52.398;7.024;2024-02-23T12:04:05;53.72;46.13;63.06;;
58303;Laerm;44109;52.398;7.024;2024-02-23T12:06:33;52.68;44.04;65.89;;
58303;Laerm;44109;52.398;7.024;2024-02-23T12:09:01;53.22;46.27;67.82;;
58303;Laerm;44109;52.398;7.024;2024-02-23T12:11:32;53.10;45.37;70.75;;
58303;Laerm;44109;52.398;7.024;2024-02-23T12:14:00;55.26;46.51;69.76;;
58303;Laerm;44109;52.398;7.024;2024-02-23T12:16:28;50.78;43.75;64.11;;
58303;Laerm;44109;52.398;7.024;2024-02-23T12:18:56;51.55;44.94;61.35;;
58303;Laerm;44109;52.398;7.024;2024-02-23T12:21:27;53.07;42.59;74.09;;
58303;Laerm;44109;52.398;7.024;2024-02-23T12:23:54;52.32;45.59;65.87;;
58303;Laerm;44109;52.398;7.024;2024-02-23T12:26:22;52.33;44.53;60.74;;
58303;Laerm;44109;52.398;7.024;2024-02-23T12:28:51;50.49;44.35;57.38;;
58303;Laerm;44109;52.398;7.024;2024-02-23T12:31:24;52.64;46.07;61.97;;
58303;Laerm;44109;52.398;7.024;2024-02-23T12:33:53;52.10;43.94;65.46;;
58303;Laerm;44109;52.398;7.024;2024-02-23T12:36:20;51.90;44.84;60.32;;
58303;Laerm;44109;52.398;7.024;2024-02-23T12:38:48;52.50;45.29;62.22;;
58303;Laerm;44109;52.398;7.024;2024-02-23T12:41:15;51.75;44.89;57.80;;
58303;Laerm;44109;52.398;7.024;2024-02-23T12:43:43;50.73;43.60;58.61;;
58303;Laerm;44109;52.398;7.024;2024-02-23T12:46:12;50.32;41.98;57.70;;
58303;Laerm;44109;52.398;7.024;2024-02-23T12:48:40;53.26;45.72;77.02;;
58303;Laerm;44109;52.398;7.024;2024-02-23T12:51:09;51.55;44.07;68.61;;
58303;Laerm;44109;52.398;7.024;2024-02-23T12:53:38;52.23;42.38;67.30;;
58303;Laerm;44109;52.398;7.024;2024-02-23T12:56:08;53.26;45.71;72.81;;
58303;Laerm;44109;52.398;7.024;2024-02-23T12:58:36;52.78;45.90;69.89;;
58303;Laerm;44109;52.398;7.024;2024-02-23T13:01:05;55.89;45.09;75.07;;
58303;Laerm;44109;52.398;7.024;2024-02-23T13:03:35;51.91;44.76;64.12;;
58303;Laerm;44109;52.398;7.024;2024-02-23T13:06:04;57.06;43.14;77.12;;
58303;Laerm;44109;52.398;7.024;2024-02-23T13:08:32;56.92;46.54;82.49;;
58303;Laerm;44109;52.398;7.024;2024-02-23T13:11:01;54.79;44.32;83.01;;
58303;Laerm;44109;52.398;7.024;2024-02-23T13:13:29;55.06;45.53;88.14;;
58303;Laerm;44109;52.398;7.024;2024-02-23T13:15:58;53.52;47.79;69.83;;
58303;Laerm;44109;52.398;7.024;2024-02-23T13:18:25;50.49;44.21;68.30;;
58303;Laerm;44109;52.398;7.024;2024-02-23T13:20:54;50.73;44.58;66.13;;
58303;Laerm;44109;52.398;7.024;2024-02-23T13:23:22;64.27;46.20;100.29;;
58303;Laerm;44109;52.398;7.024;2024-02-23T13:25:49;52.76;46.10;72.05;;
58303;Laerm;44109;52.398;7.024;2024-02-23T13:28:17;52.43;45.46;66.24;;
58303;Laerm;44109;52.398;7.024;2024-02-23T13:30:46;52.90;47.04;64.15;;
58303;Laerm;44109;52.398;7.024;2024-02-23T13:33:14;51.22;44.69;62.78;;
58303;Laerm;44109;52.398;7.024;2024-02-23T13:35:42;50.98;46.18;63.22;;
58303;Laerm;44109;52.398;7.024;2024-02-23T13:38:11;54.45;43.16;77.35;;
58303;Laerm;44109;52.398;7.024;2024-02-23T13:40:39;53.46;46.50;69.07;;
58303;Laerm;44109;52.398;7.024;2024-02-23T13:43:06;52.31;43.61;63.70;;
58303;Laerm;44109;52.398;7.024;2024-02-23T13:45:48;51.81;45.07;69.21;;
58303;Laerm;44109;52.398;7.024;2024-02-23T13:48:17;51.45;44.83;65.84;;
58303;Laerm;44109;52.398;7.024;2024-02-23T13:50:47;49.86;43.77;63.85;;
58303;Laerm;44109;52.398;7.024;2024-02-23T13:53:16;51.36;44.27;67.35;;